Etusivu
METAR-TAF:

METAR-TAF

Lentoasemat :

Muscatine, Iowa, Yhdysvallat

Leveyspiiri: 41-22N, Pituuspiiri: 091-09W, korkeus merenpinnasta: 167 m

Tämänhetkinen sää

Tämä raportti tehtiin 16 minuuttia sitten, kello 06.55 UTC
tyyntä
Lämpötila 20°C
Kosteus 94%
Ilmanpaine 1013 hPa
Näkyvyys: 16.1 km
Muutamia pilviä 3100 ft:n korkeudessa
Muutamia pilviä 4000 ft:n korkeudessa
Hajanaisia pilviä 11000 ft:n korkeudessa

METAR: KMUT 260655Z AUTO 00000KT 10SM FEW031 FEW040 SCT110 20/19 A2991 RMK AO2

Aika: 02:11 (07:11 UTC)


TAF: puuttuu

Säähavainnot ja -ennusteet yli 4000 lentoasemalta (METAR- ja TAF-raportit).

Käytössä olevat sääasemat on merkitty karttaan keltaisilla ja punaisilla pisteillä.

Aseta hiiri pisteen päälle nähdäksesi sääaseman nimen.

Klikkaa sitten nähdäksesi säähavainnot ja -ennusteet.

Kartan vaihtaminen: klikkaa mustalla rastilla varustettuja vihreitä pisteitä, niin voit zoomata sisään; viivalla varustettua vihreää pistettä, niin voit zoomata ulos tai vihreitä nuolia, niin pääset viereisille kartoille.


METAR-TAF: